Nearby METAR Reports

 

KBOS - Boston, MA, USA
Distance from station: SE 24mi, 39km
Updated: Jul/19/2024 6:54am
Few Clouds
Few Clouds
 Wind from NW
Wind: NW 10 mph, 17 km/h
Temperature: 68°F, 20°C
Dew Point: 54°F, 12°C
Humidity: 60%
Barometer: 30.05 inHg, 1017.6 hPa
Clouds: Few Clouds
Visibility: 10 miles, 16 km
Cloud details: Few Clouds 12000 ft
2024/07/19 10:54 KBOS 191054Z 31009KT 10SM FEW120 20/12 A3005 RMK AO2 SLP174 T02000117
KBED - Bedford, MA, USA
Distance from station: S 11mi, 18km
Updated: Jul/19/2024 6:51am
Clear
Clear
 Wind from WNW
Wind: WNW 6 mph, 9 km/h
Temperature: 64°F, 18°C
Dew Point: 55°F, 13°C
Humidity: 73%
Barometer: 30.04 inHg, 1017.3 hPa
Clouds: Clear
Visibility: 10 miles, 16 km
2024/07/19 10:51 KBED 191051Z 30005KT 10SM CLR 18/13 A3004 RMK AO2 SLP182 T01780128
KLWM - Lawrence, MA, USA
Distance from station: ENE 12mi, 19km
Updated: Jul/19/2024 6:54am
Clear
Clear
 Wind from varies
Wind: varies 6 mph, 9 km/h
Temperature: 64°F, 18°C
Dew Point: 55°F, 13°C
Humidity: 73%
Barometer: 30.06 inHg, 1017.9 hPa
Clouds: Clear
Visibility: 10 miles, 16 km
2024/07/19 10:54 KLWM 191054Z VRB05KT 10SM CLR 18/13 A3006 RMK AO2 SLP178 T01780128
 
KASH - Nashua, NH, USA
Distance from station: NW 14mi, 23km
Updated: Jul/19/2024 6:56am
Clear
Clear
 Wind from NW
Wind: NW 9 mph, 15 km/h
Temperature: 64°F, 18°C
Dew Point: 57°F, 14°C
Humidity: 78%
Barometer: 30.06 inHg, 1017.9 hPa
Clouds: Clear
Visibility: 10 miles, 16 km
2024/07/19 10:56 KASH 191056Z 31008KT 10SM CLR 18/14 A3006 RMK AO2 SLP183 T01780144
KMHT - Manchester, NH, USA
Distance from station: NNW 22mi, 35km
Updated: Jul/19/2024 6:53am
Few Clouds
Few Clouds
 Wind from NNW
Wind: NNW 13 mph, 20 km/h
Temperature: 66°F, 19°C
Dew Point: 54°F, 12°C
Humidity: 64%
Barometer: 30.04 inHg, 1017.3 hPa
Clouds: Few Clouds
Visibility: 10 miles, 16 km
Cloud details: Few Clouds 20000 ft
2024/07/19 10:53 KMHT 191053Z 33011KT 10SM FEW200 19/12 A3004 RMK AO2 SLP181 T01890117
KFIT - Fitchburg, MA, USA
Distance from station: WSW 22mi, 35km
Updated: Jul/19/2024 6:52am
Clear
Clear
 Wind from N
Wind: N 5 mph, 7 km/h
Temperature: 64°F, 18°C
Dew Point: 57°F, 14°C
Humidity: 78%
Barometer: 30.07 inHg, 1018.3 hPa
Clouds: Clear
Visibility: 10 miles, 16 km
2024/07/19 10:52 KFIT 191052Z AUTO 36004KT 10SM CLR 18/14 A3007 RMK AO2 SLP181 T01780139 $